Time;durP1;ratioP1;P1;durP2;ratioP2;P2;SDS_P1;SDS_P2;PMS_P1;PMS_P2;Temp;Humidity;BMP_temperature;BMP_pressure;BME280_temperature;BME280_humidity;BME280_pressure;Samples;Min_cycle;Max_cycle;Signal;HPM_P1;HPM_P2
2022/03/18 00:02:06;;;;;;;13.40;6.30;;;;;;;-7.00;69.92;101287.50;104673;1274;61067;-28
2022/03/18 00:04:37;;;;;;;14.80;6.60;;;;;;;-7.23;70.29;101289.94;104805;1271;74332;-29
2022/03/18 00:07:07;;;;;;;11.90;5.00;;;;;;;-7.44;71.11;101287.98;104950;1271;76020;-28
2022/03/18 00:09:50;;;;;;;15.50;6.10;;;;;;;-7.63;72.80;101289.30;104930;1271;74377;-28
2022/03/18 00:12:20;;;;;;;13.90;4.20;;;;;;;-7.79;72.43;101289.52;105035;1271;61896;-28
2022/03/18 00:14:49;;;;;;;11.00;4.60;;;;;;;-7.63;71.81;101296.06;105240;1270;61834;-28
2022/03/18 00:17:18;;;;;;;18.80;7.90;;;;;;;-6.66;72.00;101297.65;105024;1271;75343;-28
2022/03/18 00:19:48;;;;;;;22.50;11.10;;;;;;;-6.07;70.06;101300.58;105002;1270;76005;-28
2022/03/18 00:22:17;;;;;;;25.40;10.80;;;;;;;-6.06;68.92;101297.23;105076;1271;74398;-28
2022/03/18 00:24:46;;;;;;;14.50;8.20;;;;;;;-6.32;68.92;101295.28;104897;1271;61142;-28
2022/03/18 00:27:16;;;;;;;21.40;8.00;;;;;;;-6.62;70.61;101293.52;104954;1271;61860;-28
2022/03/18 00:29:46;;;;;;;15.70;6.90;;;;;;;-6.92;71.28;101298.67;105002;1270;75397;-31
2022/03/18 00:32:15;;;;;;;14.50;5.50;;;;;;;-7.21;71.79;101294.02;104956;1271;76067;-28
2022/03/18 00:34:45;;;;;;;12.60;5.50;;;;;;;-7.45;72.29;101296.40;104952;1271;74355;-28
2022/03/18 00:37:14;;;;;;;17.50;6.10;;;;;;;-7.69;73.05;101299.77;104905;1271;61805;-30
2022/03/18 00:39:43;;;;;;;10.40;4.80;;;;;;;-7.93;72.74;101299.55;104912;1271;62265;-28
2022/03/18 00:42:13;;;;;;;9.90;4.20;;;;;;;-7.89;74.03;101299.50;104964;1271;75496;-28
2022/03/18 00:44:42;;;;;;;25.70;9.30;;;;;;;-7.07;73.14;101302.50;104944;1271;74987;-28
2022/03/18 00:52:50;;;;;;;26.10;12.00;;;;;;;-6.91;70.19;101303.27;105077;1271;62203;-28
2022/03/18 00:55:19;;;;;;;29.40;12.90;;;;;;;-7.21;70.54;101300.60;104958;1271;75556;-28
2022/03/18 00:57:48;;;;;;;30.00;11.50;;;;;;;-7.47;71.18;101303.59;104964;1271;75970;-28
2022/03/18 01:00:17;;;;;;;35.10;13.90;;;;;;;-7.70;74.22;101301.09;104989;1271;73272;-28
2022/03/18 01:02:46;;;;;;;255.30;70.60;;;;;;;-7.85;78.21;101302.84;104899;1271;61209;-30
2022/03/18 01:05:17;;;;;;;34.90;14.70;;;;;;;-7.96;80.90;101298.63;104961;1271;61147;-28
2022/03/18 01:07:46;;;;;;;15.00;6.90;;;;;;;-7.86;80.16;101299.93;104769;1271;74081;-30
2022/03/18 01:10:36;;;;;;;32.50;13.10;;;;;;;-6.83;76.82;101301.27;104984;1271;76309;-28
2022/03/18 01:13:05;;;;;;;29.30;13.90;;;;;;;-6.31;72.93;101302.08;104790;1271;72423;-29
2022/03/18 01:15:35;;;;;;;26.30;12.40;;;;;;;-6.36;72.42;101299.23;104797;1271;61376;-29
2022/03/18 01:18:04;;;;;;;23.00;12.00;;;;;;;-6.59;72.22;101301.88;105052;1271;61111;-29
2022/03/18 01:20:33;;;;;;;24.80;8.80;;;;;;;-6.85;70.38;101305.94;104935;1271;73831;-28
2022/03/18 01:23:06;;;;;;;12.10;6.60;;;;;;;-7.14;69.61;101303.52;104959;1271;75008;-29
2022/03/18 01:25:35;;;;;;;25.40;9.80;;;;;;;-7.40;69.84;101303.30;104633;1274;72408;-28
2022/03/18 01:28:06;;;;;;;33.10;13.50;;;;;;;-7.64;70.45;101298.40;104814;1271;62194;-29
2022/03/18 01:30:35;;;;;;;35.50;14.80;;;;;;;-7.87;71.30;101296.56;104955;1271;60998;-28
2022/03/18 01:33:04;;;;;;;33.20;15.80;;;;;;;-8.05;71.92;101295.83;105182;1269;75326;-28
2022/03/18 01:35:33;;;;;;;47.60;19.60;;;;;;;-7.69;72.61;101297.40;105245;1270;75824;-29
2022/03/18 01:38:03;;;;;;;42.60;18.50;;;;;;;-6.86;71.77;101305.25;105157;1271;75155;-27
2022/03/18 01:40:33;;;;;;;53.90;21.80;;;;;;;-6.67;70.17;101304.39;105170;1271;61541;-31
2022/03/18 01:43:12;;;;;;;46.90;23.70;;;;;;;-6.89;69.80;101301.62;104933;1271;61864;-30
2022/03/18 01:45:42;;;;;;;54.30;25.60;;;;;;;-7.22;70.29;101304.98;104686;1271;74546;-29
2022/03/18 01:48:11;;;;;;;49.40;24.60;;;;;;;-7.53;70.57;101308.83;104800;1271;76046;-29
2022/03/18 01:50:41;;;;;;;44.90;18.80;;;;;;;-7.83;71.44;101306.77;104750;1271;74386;-29
2022/03/18 01:53:11;;;;;;;28.80;12.10;;;;;;;-8.13;72.14;101302.34;104901;1271;62084;-31
2022/03/18 01:55:40;;;;;;;26.20;9.00;;;;;;;-8.42;72.75;101308.33;104942;1271;61816;-30
2022/03/18 01:58:09;;;;;;;13.40;4.90;;;;;;;-8.49;74.05;101311.48;104963;1271;74512;-29
2022/03/18 02:00:39;;;;;;;21.90;8.10;;;;;;;-7.70;73.77;101312.90;104833;1271;74491;-29
2022/03/18 02:03:08;;;;;;;15.20;7.00;;;;;;;-7.12;72.24;101315.23;104881;1271;74675;-29
2022/03/18 02:05:40;;;;;;;17.70;9.00;;;;;;;-7.12;71.57;101312.70;105141;1271;61033;-29
2022/03/18 02:08:10;;;;;;;17.90;9.50;;;;;;;-7.34;71.81;101314.27;104726;1271;61157;-29
2022/03/18 02:10:59;;;;;;;21.10;7.90;;;;;;;-7.72;73.08;101318.40;104884;1271;76343;-29
2022/03/18 02:13:52;;;;;;;10.50;5.00;;;;;;;-8.09;73.74;101319.30;104783;1271;77015;-30
2022/03/18 02:16:29;;;;;;;16.50;5.50;;;;;;;-8.35;74.24;101317.48;104634;1271;74390;-29
2022/03/18 02:19:00;;;;;;;13.20;5.20;;;;;;;-8.61;75.19;101320.05;104913;1271;61144;-29
2022/03/18 02:21:30;;;;;;;8.50;4.00;;;;;;;-8.53;75.87;101321.98;104771;1271;62016;-29
2022/03/18 02:23:59;;;;;;;10.90;5.50;;;;;;;-7.66;75.08;101323.64;104809;1271;75466;-29
2022/03/18 02:26:28;;;;;;;15.50;6.80;;;;;;;-7.20;73.01;101326.48;104897;1271;76051;-29
2022/03/18 02:28:58;;;;;;;10.70;5.70;;;;;;;-7.25;72.21;101327.68;104903;1271;74398;-29
2022/03/18 02:31:30;;;;;;;8.20;5.40;;;;;;;-7.46;72.31;101327.75;104856;1270;61151;-29
2022/03/18 02:33:59;;;;;;;7.70;5.10;;;;;;;-7.71;72.73;101326.02;104676;1271;61074;-29
2022/03/18 02:36:29;;;;;;;8.80;5.10;;;;;;;-7.96;72.83;101326.63;104914;1271;75445;-29
2022/03/18 02:39:03;;;;;;;9.50;4.30;;;;;;;-8.20;73.76;101330.25;104891;1271;74481;-29
2022/03/18 02:41:33;;;;;;;7.50;3.20;;;;;;;-8.42;74.17;101330.07;104723;1271;74205;-29
2022/03/18 02:44:03;;;;;;;7.00;3.20;;;;;;;-8.45;75.52;101334.70;104724;1271;64192;-29
2022/03/18 02:46:33;;;;;;;11.10;3.50;;;;;;;-7.61;74.80;101342.16;104753;1271;61887;-29
2022/03/18 02:49:03;;;;;;;33.50;9.20;;;;;;;-7.01;71.77;101344.55;104842;1270;75518;-29
2022/03/18 02:51:33;;;;;;;24.50;9.70;;;;;;;-6.99;69.87;101340.73;104782;1271;75795;-29
2022/03/18 02:54:02;;;;;;;24.40;13.80;;;;;;;-7.18;69.95;101343.91;104985;1271;74457;-29
2022/03/18 02:56:32;;;;;;;29.00;12.10;;;;;;;-7.45;70.21;101341.45;105003;1271;61324;-29
2022/03/18 02:59:02;;;;;;;30.10;12.50;;;;;;;-7.72;71.33;101343.19;104762;1271;62209;-29
2022/03/18 03:01:32;;;;;;;32.10;11.10;;;;;;;-8.00;72.37;101345.56;104973;1271;75582;-29
2022/03/18 03:04:01;;;;;;;22.40;8.60;;;;;;;-8.23;72.72;101346.52;105150;1271;76011;-29
2022/03/18 03:09:20;;;;;;;13.40;5.20;;;;;;;-7.88;73.13;101352.34;104850;1271;61612;-29
2022/03/18 03:12:09;;;;;;;31.40;12.30;;;;;;;-7.12;72.79;101357.60;105170;1271;62215;-29
2022/03/18 03:14:38;;;;;;;21.80;9.80;;;;;;;-7.01;71.35;101358.57;105062;1271;75457;-29
2022/03/18 03:17:08;;;;;;;26.80;12.20;;;;;;;-7.18;69.78;101361.65;105020;1271;74851;-29
2022/03/18 03:19:37;;;;;;;28.20;12.70;;;;;;;-7.45;70.43;101361.23;105036;1270;73252;-29
2022/03/18 03:22:08;;;;;;;20.60;9.10;;;;;;;-7.72;70.02;101361.45;104941;1271;61113;-29
2022/03/18 03:24:39;;;;;;;23.40;8.30;;;;;;;-7.97;70.35;101367.08;105005;1271;61062;-29
2022/03/18 03:27:08;;;;;;;18.90;7.90;;;;;;;-8.22;70.67;101367.27;104833;1271;74564;-29
2022/03/18 03:29:37;;;;;;;27.60;11.10;;;;;;;-8.44;71.17;101369.08;104954;1271;76064;-29
2022/03/18 03:32:07;;;;;;;30.00;11.50;;;;;;;-8.13;73.32;101371.09;104929;1271;74098;-28
2022/03/18 03:34:37;;;;;;;68.20;23.70;;;;;;;-7.31;72.09;101374.26;104750;1271;61340;-29
2022/03/18 03:37:06;;;;;;;77.60;33.40;;;;;;;-7.09;71.19;101378.48;104955;1271;61437;-30
2022/03/18 03:39:35;;;;;;;77.10;31.70;;;;;;;-7.33;71.35;101383.52;104985;1271;74601;-29
2022/03/18 03:42:05;;;;;;;68.50;31.60;;;;;;;-7.59;71.84;101380.71;104969;1271;76042;-29
2022/03/18 03:44:34;;;;;;;57.30;25.20;;;;;;;-7.86;71.64;101380.89;104920;1270;74342;-29
2022/03/18 03:47:04;;;;;;;44.00;15.60;;;;;;;-8.15;71.36;101381.34;104986;1271;61227;-29
2022/03/18 03:49:33;;;;;;;43.10;15.00;;;;;;;-8.42;70.37;101388.02;104976;1270;61038;-28
2022/03/18 03:52:04;;;;;;;31.20;11.40;;;;;;;-8.66;70.38;101390.27;104740;1274;75530;-28
2022/03/18 03:54:34;;;;;;;25.30;10.60;;;;;;;-8.30;71.57;101393.83;104835;1271;75812;-28
2022/03/18 03:57:07;;;;;;;75.00;29.40;;;;;;;-7.48;70.98;101391.84;104833;1271;73414;-29
2022/03/18 03:59:36;;;;;;;75.30;33.60;;;;;;;-7.26;70.36;101391.64;104744;1271;61662;-30
2022/03/18 04:02:08;;;;;;;71.60;31.40;;;;;;;-7.42;70.15;101394.02;104953;1271;61070;-29
2022/03/18 04:04:37;;;;;;;61.40;29.40;;;;;;;-7.70;70.44;101397.77;104970;1271;73425;-30
2022/03/18 04:07:08;;;;;;;49.50;25.40;;;;;;;-7.99;70.52;101397.33;104980;1271;76221;-30
2022/03/18 04:09:37;;;;;;;46.80;22.60;;;;;;;-8.30;71.02;101399.54;104864;1271;74851;-30
2022/03/18 04:12:07;;;;;;;63.20;28.40;;;;;;;-8.59;72.84;101396.42;104887;1271;62275;-30
2022/03/18 04:14:37;;;;;;;32.40;14.90;;;;;;;-8.74;73.65;101402.63;104880;1271;61116;-31
2022/03/18 04:17:06;;;;;;;54.30;18.00;;;;;;;-8.13;73.42;101402.98;104991;1271;75378;-28
2022/03/18 04:19:36;;;;;;;72.30;29.50;;;;;;;-7.37;71.38;101404.98;104959;1271;76348;-28
2022/03/18 04:22:06;;;;;;;72.40;31.80;;;;;;;-7.27;70.31;101412.19;104808;1272;74428;-31
2022/03/18 04:24:38;;;;;;;65.30;30.80;;;;;;;-7.47;70.77;101410.41;104775;1271;61138;-30
2022/03/18 04:27:07;;;;;;;55.70;27.90;;;;;;;-7.76;72.17;101416.45;104919;1271;61128;-30
2022/03/18 04:29:36;;;;;;;58.50;25.00;;;;;;;-8.00;73.03;101421.59;104849;1274;74754;-30
2022/03/18 04:32:06;;;;;;;61.10;25.80;;;;;;;-8.20;74.29;101421.11;104914;1271;74788;-28
2022/03/18 04:34:35;;;;;;;73.20;28.20;;;;;;;-8.35;75.54;101423.14;104803;1271;74299;-30
2022/03/18 04:37:05;;;;;;;36.50;17.80;;;;;;;-8.41;76.96;101424.13;104809;1271;62186;-30
2022/03/18 04:39:34;;;;;;;40.30;17.00;;;;;;;-7.75;76.55;101426.76;105240;1271;61838;-28
2022/03/18 04:42:06;;;;;;;110.40;38.60;;;;;;;-6.73;73.57;101430.77;104835;1272;75528;-28
2022/03/18 04:44:37;;;;;;;103.30;45.10;;;;;;;-6.33;71.66;101431.18;104954;1271;75941;-28
2022/03/18 04:47:06;;;;;;;61.90;29.30;;;;;;;-6.25;71.02;101436.48;104950;1271;72362;-28
2022/03/18 04:49:38;;;;;;;52.40;23.50;;;;;;;-6.25;69.57;101437.48;104897;1271;61334;-28
2022/03/18 04:52:07;;;;;;;39.50;17.20;;;;;;;-6.32;69.51;101439.32;104767;1271;62278;-29
2022/03/18 04:54:36;;;;;;;42.50;16.60;;;;;;;-6.39;69.14;101441.00;105070;1270;75334;-28
2022/03/18 04:57:18;;;;;;;38.90;16.40;;;;;;;-6.47;68.82;101441.98;104690;1271;400902;-28
2022/03/18 04:59:48;;;;;;;42.20;20.10;;;;;;;-6.50;70.07;101446.30;104915;1271;74605;-28
2022/03/18 05:02:24;;;;;;;48.90;24.50;;;;;;;-6.46;71.67;101447.94;104708;1271;61292;-28
2022/03/18 05:04:53;;;;;;;69.00;29.60;;;;;;;-6.42;71.59;101449.38;104799;1271;61818;-28
2022/03/18 05:07:24;;;;;;;59.20;27.50;;;;;;;-6.42;72.08;101451.06;104984;1271;74556;-28
2022/03/18 05:09:53;;;;;;;54.10;29.60;;;;;;;-6.34;71.42;101454.31;104785;1272;76221;-28
2022/03/18 05:12:23;;;;;;;56.50;28.40;;;;;;;-6.23;70.66;101456.64;104964;1271;74247;-28
2022/03/18 05:15:13;;;;;;;60.20;30.70;;;;;;;-6.09;70.27;101465.94;104917;1271;61099;-29
2022/03/18 05:17:50;;;;;;;47.30;25.70;;;;;;;-5.97;70.04;101471.99;104878;1271;61102;-28
2022/03/18 05:20:20;;;;;;;62.30;32.30;;;;;;;-5.84;68.34;101470.45;104698;1271;75599;-28
2022/03/18 05:22:51;;;;;;;69.70;33.50;;;;;;;-5.72;67.22;101467.34;105239;1271;76717;-28
2022/03/18 05:25:21;;;;;;;35.80;16.60;;;;;;;-5.65;66.82;101469.04;104778;1272;74330;-28
2022/03/18 05:27:52;;;;;;;47.40;26.30;;;;;;;-5.58;66.05;101473.45;104842;1274;62376;-29
2022/03/18 05:30:21;;;;;;;49.10;26.90;;;;;;;-5.48;66.15;101479.25;104808;1272;62087;-29
2022/03/18 05:32:51;;;;;;;36.60;19.80;;;;;;;-5.37;66.48;101484.27;104953;1274;75619;-28
2022/03/18 05:35:20;;;;;;;43.60;21.80;;;;;;;-5.28;65.16;101482.94;104898;1272;76078;-28
2022/03/18 05:37:49;;;;;;;39.40;21.90;;;;;;;-5.19;65.01;101482.45;104822;1272;72869;-28
2022/03/18 05:40:20;;;;;;;40.60;21.40;;;;;;;-5.09;65.06;101487.23;104892;1272;61962;-28
2022/03/18 05:42:50;;;;;;;43.90;22.70;;;;;;;-5.03;64.40;101490.08;105217;1271;61437;-28
2022/03/18 05:45:19;;;;;;;46.50;24.30;;;;;;;-5.00;64.80;101490.31;105139;1271;73299;-28
2022/03/18 05:47:49;;;;;;;38.60;22.30;;;;;;;-4.96;63.84;101492.77;105020;1274;75963;-28
2022/03/18 05:50:19;;;;;;;42.70;23.20;;;;;;;-4.99;63.29;101494.08;104928;1274;74361;-28
2022/03/18 05:52:48;;;;;;;28.50;13.90;;;;;;;-5.00;62.70;101497.61;104766;1273;61259;-28
2022/03/18 05:55:20;;;;;;;23.80;11.60;;;;;;;-4.99;62.51;101497.13;104816;1274;62309;-28
2022/03/18 05:57:50;;;;;;;19.80;11.20;;;;;;;-4.93;61.94;101497.61;104734;1272;76104;-28
2022/03/18 06:00:20;;;;;;;24.30;12.50;;;;;;;-4.84;61.61;101507.10;104711;1274;76393;-28
2022/03/18 06:02:50;;;;;;;30.70;12.90;;;;;;;-4.80;61.41;101508.20;104730;1274;73436;-28
2022/03/18 06:05:20;;;;;;;15.00;7.70;;;;;;;-4.80;61.81;101510.05;104849;1272;61964;-30
2022/03/18 06:11:48;;;;;;;17.30;8.40;;;;;;;-4.81;61.03;101507.49;104778;1273;62156;-28
2022/03/18 06:13:38;;;;;;;14.70;7.40;;;;;;;-4.72;60.84;101508.02;104811;1271;76366;-28
2022/03/18 06:16:08;;;;;;;16.50;7.20;;;;;;;-4.65;60.53;101512.23;104694;1274;73894;-28
2022/03/18 06:18:41;;;;;;;15.00;7.60;;;;;;;-4.55;59.47;101509.38;104959;1274;62394;-28
2022/03/18 06:22:31;;;;;;;13.70;8.20;;;;;;;-4.47;59.79;101512.60;101824;1308;599677;-29
2022/03/18 06:25:01;;;;;;;9.40;4.90;;;;;;;-4.40;59.94;101513.58;105143;1274;61187;-29
2022/03/18 06:27:30;;;;;;;15.00;5.60;;;;;;;-4.30;59.45;101514.11;105148;1272;61756;-29
2022/03/18 06:29:59;;;;;;;17.20;7.20;;;;;;;-4.24;58.18;101516.77;105133;1274;74324;-29
2022/03/18 06:32:29;;;;;;;10.60;4.30;;;;;;;-4.17;56.16;101516.58;105134;1274;76071;-29
2022/03/18 06:34:58;;;;;;;12.80;6.80;;;;;;;-4.01;55.53;101517.22;104790;1274;248329;-30
2022/03/18 06:37:27;;;;;;;12.80;6.20;;;;;;;-3.80;55.34;101518.75;104755;1272;62085;-29
2022/03/18 06:39:57;;;;;;;14.80;7.80;;;;;;;-3.56;55.24;101520.19;105002;1271;61999;-30
2022/03/18 06:42:26;;;;;;;17.00;9.10;;;;;;;-3.27;54.87;101521.66;105081;1271;73708;-28
2022/03/18 06:44:56;;;;;;;22.70;10.20;;;;;;;-3.00;53.84;101518.48;105026;1271;74973;-28
2022/03/18 06:47:27;;;;;;;16.70;7.70;;;;;;;-2.90;51.32;101518.27;104994;1271;73208;-28
2022/03/18 06:49:56;;;;;;;7.20;4.00;;;;;;;-2.62;49.95;101520.52;105153;1271;61271;-30
2022/03/18 06:52:25;;;;;;;10.70;5.50;;;;;;;-2.32;48.87;101524.10;105069;1271;62444;-29
2022/03/18 06:54:56;;;;;;;13.50;6.00;;;;;;;-2.11;48.20;101525.52;105075;1271;73642;-31
2022/03/18 06:57:25;;;;;;;13.60;6.40;;;;;;;-1.94;48.18;101527.23;105021;1271;76282;-30
2022/03/18 06:59:55;;;;;;;8.80;5.20;;;;;;;-1.75;47.38;101528.93;104964;1271;74316;-29
2022/03/18 07:02:26;;;;;;;9.50;5.20;;;;;;;-1.77;45.34;101530.27;104893;1271;61387;-33
2022/03/18 07:04:55;;;;;;;8.40;4.50;;;;;;;-1.72;45.78;101532.37;104857;1271;62185;-31
2022/03/18 07:07:25;;;;;;;13.30;6.40;;;;;;;-1.63;45.15;101532.97;105157;1271;74573;-30
2022/03/18 07:10:14;;;;;;;8.60;4.80;;;;;;;-1.59;45.57;101535.55;105147;1271;76087;-31
2022/03/18 07:12:47;;;;;;;;;;;;;;;-1.57;46.09;101536.42;105101;1270;74404;-31
2022/03/18 07:15:17;;;;;;;11.80;4.70;;;;;;;-1.48;46.21;101535.83;105103;1271;61233;-31
2022/03/18 07:17:58;;;;;;;8.30;4.20;;;;;;;-1.36;46.45;101536.09;105111;1271;61003;-28
2022/03/18 07:20:38;;;;;;;7.10;2.50;;;;;;;-0.96;47.52;101534.14;104843;1271;74528;-28
2022/03/18 07:23:08;;;;;;;11.90;6.10;;;;;;;-0.67;47.18;101537.54;104776;1271;75811;-28
2022/03/18 07:25:42;;;;;;;6.90;4.10;;;;;;;-0.44;46.26;101537.30;104817;1271;72256;-28
2022/03/18 07:28:12;;;;;;;4.50;2.30;;;;;;;-0.25;43.84;101534.64;104852;1271;61054;-29
2022/03/18 07:30:43;;;;;;;7.10;4.40;;;;;;;-0.05;44.26;101532.83;105098;1271;62080;-29
2022/03/18 07:33:21;;;;;;;8.30;3.70;;;;;;;0.16;43.02;101526.36;104773;1271;74421;-28
2022/03/18 07:35:50;;;;;;;4.90;2.50;;;;;;;0.33;42.05;101528.27;105076;1271;75038;-28
2022/03/18 07:38:20;;;;;;;15.00;6.40;;;;;;;0.57;41.61;101526.39;105065;1271;74422;-28
2022/03/18 07:40:54;;;;;;;8.70;4.30;;;;;;;0.77;40.71;101526.88;105035;1271;61118;-29
2022/03/18 07:43:23;;;;;;;18.60;9.40;;;;;;;0.74;39.10;101526.71;104820;1271;61255;-28
2022/03/18 07:45:53;;;;;;;12.00;5.70;;;;;;;0.82;38.62;101526.02;105140;1271;74485;-28
2022/03/18 07:48:26;;;;;;;18.90;8.40;;;;;;;0.40;38.06;101522.27;105120;1271;76098;-28
2022/03/18 07:50:56;;;;;;;13.40;4.80;;;;;;;0.55;37.96;101519.72;104901;1271;74249;-28
2022/03/18 07:53:25;;;;;;;19.40;9.30;;;;;;;0.51;38.03;101517.84;104914;1271;61488;-29
2022/03/18 07:55:54;;;;;;;13.00;7.00;;;;;;;0.34;39.12;101522.80;104939;1271;61158;-28
2022/03/18 07:58:24;;;;;;;10.10;4.80;;;;;;;0.95;36.55;101523.61;105009;1271;73720;-28
2022/03/18 08:01:13;;;;;;;8.40;4.70;;;;;;;1.06;37.49;101524.10;105030;1271;75877;-28
2022/03/18 08:04:02;;;;;;;7.40;3.70;;;;;;;1.10;36.63;101521.36;105109;1271;74585;-28
2022/03/18 08:06:52;;;;;;;8.40;4.80;;;;;;;0.93;35.77;101521.73;105137;1271;61529;-28
2022/03/18 08:09:41;;;;;;;6.80;3.70;;;;;;;0.26;35.32;101519.03;105095;1271;63172;-28
2022/03/18 08:12:10;;;;;;;6.60;3.00;;;;;;;0.36;35.49;101522.09;104996;1271;74754;-29
2022/03/18 08:14:39;;;;;;;5.70;2.80;;;;;;;1.19;35.35;101527.66;104934;1271;75052;-29
2022/03/18 08:17:09;;;;;;;4.40;3.20;;;;;;;1.63;33.81;101531.09;104938;1272;75652;-28
2022/03/18 08:19:38;;;;;;;21.10;15.60;;;;;;;1.12;34.12;101529.39;105010;1271;61137;-28
2022/03/18 08:22:07;;;;;;;5.10;3.20;;;;;;;0.48;34.45;101527.92;104931;1271;61045;-28
2022/03/18 08:24:37;;;;;;;11.50;3.80;;;;;;;1.16;33.76;101527.15;104963;1271;74740;-29
2022/03/18 08:27:07;;;;;;;21.70;11.80;;;;;;;1.09;34.26;101525.97;104897;1271;75976;-28
2022/03/18 08:29:38;;;;;;;15.50;5.90;;;;;;;0.88;34.36;101528.05;104892;1271;73167;-29
2022/03/18 08:32:08;;;;;;;20.10;8.90;;;;;;;1.25;33.98;101531.08;104762;1271;61180;-28
2022/03/18 08:34:37;;;;;;;15.70;6.40;;;;;;;1.24;34.54;101530.71;104782;1271;61112;-28
2022/03/18 08:37:10;;;;;;;9.90;4.00;;;;;;;2.14;33.08;101536.11;104824;1271;74798;-29
2022/03/18 08:39:43;;;;;;;7.90;3.40;;;;;;;1.92;32.81;101533.32;105034;1271;76042;-28
2022/03/18 08:42:12;;;;;;;9.60;4.90;;;;;;;1.81;33.47;101530.66;104830;1272;73574;-28
2022/03/18 08:44:41;;;;;;;23.90;9.30;;;;;;;1.28;32.76;101530.20;104895;1271;61114;-28
2022/03/18 08:47:10;;;;;;;14.80;6.30;;;;;;;1.29;32.60;101530.02;105016;1271;62617;-29
2022/03/18 08:49:39;;;;;;;15.10;5.90;;;;;;;0.70;33.92;101530.66;104982;1271;74708;-29
2022/03/18 08:52:09;;;;;;;10.10;4.50;;;;;;;0.58;34.15;101528.42;104885;1271;75977;-28
2022/03/18 08:54:38;;;;;;;10.90;5.00;;;;;;;0.72;34.08;101530.48;105154;1271;74359;-28
2022/03/18 08:57:08;;;;;;;8.20;4.10;;;;;;;1.22;33.25;101532.97;105023;1271;61095;-28
2022/03/18 08:59:37;;;;;;;10.00;4.50;;;;;;;1.51;33.09;101537.47;105124;1271;61179;-28
2022/03/18 09:02:06;;;;;;;12.60;5.90;;;;;;;1.49;32.23;101535.43;105110;1271;73711;-30
2022/03/18 09:04:35;;;;;;;18.20;10.90;;;;;;;1.88;32.37;101540.72;104932;1271;75950;-29
2022/03/18 09:07:05;;;;;;;10.90;4.90;;;;;;;2.00;31.18;101535.68;105179;1271;74669;-28
2022/03/18 09:09:35;;;;;;;11.70;5.10;;;;;;;2.28;30.39;101534.83;105130;1271;61292;-28
2022/03/18 09:12:04;;;;;;;12.50;9.70;;;;;;;2.07;30.90;101530.17;105090;1271;61034;-29
2022/03/18 09:14:34;;;;;;;8.20;3.60;;;;;;;2.53;31.46;101531.70;104823;1271;73772;-29
2022/03/18 09:17:06;;;;;;;4.10;2.20;;;;;;;3.03;29.25;101529.89;104975;1271;76043;-29
2022/03/18 09:19:37;;;;;;;5.00;2.40;;;;;;;3.20;28.78;101533.66;104984;1271;74305;-28
2022/03/18 09:22:07;;;;;;;5.90;3.30;;;;;;;3.88;28.53;101531.61;104814;1272;61165;-29
2022/03/18 09:24:37;;;;;;;19.90;7.90;;;;;;;3.80;28.75;101530.29;104937;1271;61221;-29
2022/03/18 09:27:07;;;;;;;5.60;2.70;;;;;;;3.33;28.80;101530.94;104914;1271;73196;-30
2022/03/18 09:29:38;;;;;;;5.90;2.80;;;;;;;3.33;28.24;101527.67;104988;1271;75193;-29
2022/03/18 09:32:08;;;;;;;18.80;8.30;;;;;;;3.77;28.49;101527.82;104858;1271;74383;-29
2022/03/18 09:34:38;;;;;;;6.60;3.40;;;;;;;3.80;28.65;101528.29;104779;1271;61857;-29
2022/03/18 09:37:08;;;;;;;18.20;14.00;;;;;;;4.38;27.11;101535.35;104972;1271;60941;-30
2022/03/18 09:39:38;;;;;;;4.40;2.90;;;;;;;3.20;28.07;101530.73;104960;1271;74698;-29
2022/03/18 09:42:11;;;;;;;4.30;1.80;;;;;;;4.17;27.65;101527.08;105121;1271;75755;-29
2022/03/18 09:44:41;;;;;;;3.80;2.90;;;;;;;4.75;26.63;101521.85;104867;1271;74361;-29
2022/03/18 09:47:11;;;;;;;3.80;2.70;;;;;;;4.81;26.72;101524.49;104827;1271;61166;-28
2022/03/18 09:49:42;;;;;;;5.60;2.90;;;;;;;4.30;27.49;101531.01;105054;1271;61098;-28
2022/03/18 09:52:12;;;;;;;7.20;3.70;;;;;;;5.11;27.04;101533.23;104894;1272;74941;-29
2022/03/18 09:54:41;;;;;;;10.50;3.90;;;;;;;3.71;27.10;101529.77;105110;1271;75820;-28
2022/03/18 09:57:11;;;;;;;8.80;4.60;;;;;;;3.84;27.38;101528.38;104826;1271;74178;-28
2022/03/18 09:59:41;;;;;;;12.40;4.70;;;;;;;4.14;27.34;101527.45;104863;1271;61147;-28
2022/03/18 10:02:28;;;;;;;7.60;3.20;;;;;;;3.85;28.52;101525.65;104865;1271;61217;-28
2022/03/18 10:05:02;;;;;;;5.90;2.80;;;;;;;3.93;27.78;101521.02;104730;1271;74697;-28
2022/03/18 10:07:32;;;;;;;12.10;6.10;;;;;;;3.35;28.91;101517.51;104744;1272;75336;-28
2022/03/18 10:10:16;;;;;;;5.90;3.10;;;;;;;3.22;29.05;101519.55;104939;1271;73371;-28
2022/03/18 10:12:54;;;;;;;7.60;4.00;;;;;;;4.39;27.34;101524.67;105055;1271;62385;-28
2022/03/18 10:15:26;;;;;;;4.90;3.00;;;;;;;4.23;27.37;101524.59;105170;1271;61054;-28
2022/03/18 10:17:58;;;;;;;5.60;3.20;;;;;;;3.96;27.33;101526.19;104812;1271;74537;-28
2022/03/18 10:20:40;;;;;;;25.90;15.30;;;;;;;3.34;28.40;101520.97;104912;1271;76006;-28
2022/03/18 10:23:16;;;;;;;4.90;3.50;;;;;;;4.32;27.76;101527.02;104796;1271;74196;-28
2022/03/18 10:25:50;;;;;;;4.70;2.40;;;;;;;5.15;26.03;101522.31;104851;1271;62070;-29
2022/03/18 10:28:40;;;;;;;4.10;2.30;;;;;;;4.83;26.29;101519.63;105117;1271;61973;-28
2022/03/18 10:31:21;;;;;;;3.50;1.90;;;;;;;5.30;26.75;101518.05;104877;1271;75091;-29
2022/03/18 10:39:43;;;;;;;7.50;4.50;;;;;;;4.98;27.33;101512.98;104932;1271;61952;-28
2022/03/18 10:42:18;;;;;;;9.50;5.10;;;;;;;4.52;27.11;101511.02;105098;1271;62045;-29
2022/03/18 10:44:53;;;;;;;7.40;3.80;;;;;;;3.78;28.27;101508.38;105130;1271;75923;-29
2022/03/18 10:47:32;;;;;;;8.30;4.60;;;;;;;4.25;27.32;101510.29;105149;1271;77003;-29
2022/03/18 10:50:11;;;;;;;5.80;3.40;;;;;;;4.18;27.67;101505.23;104945;1271;74358;-28
2022/03/18 10:52:47;;;;;;;4.90;3.00;;;;;;;4.38;28.24;101511.96;104914;1272;61075;-29
2022/03/18 10:55:22;;;;;;;5.90;3.60;;;;;;;4.36;27.94;101514.75;104840;1271;61131;-28
2022/03/18 10:57:51;;;;;;;6.20;4.20;;;;;;;5.18;26.59;101509.52;104770;1271;75660;-28
2022/03/18 11:00:24;;;;;;;5.40;2.50;;;;;;;4.77;26.49;101507.18;104936;1271;75024;-29
2022/03/18 11:02:58;;;;;;;7.50;3.80;;;;;;;4.23;27.02;101504.61;104854;1271;74793;-30
2022/03/18 11:05:38;;;;;;;6.80;3.50;;;;;;;4.61;26.93;101503.68;104756;1271;62408;-32
2022/03/18 11:08:12;;;;;;;5.10;2.70;;;;;;;5.44;26.13;101506.41;104638;1275;62314;-30
2022/03/18 11:14:00;;;;;;;7.70;3.70;;;;;;;4.29;27.13;101507.78;104756;1271;75863;-29
2022/03/18 11:16:39;;;;;;;8.10;3.90;;;;;;;5.86;25.51;101507.41;104740;1274;74241;-29
2022/03/18 11:19:14;;;;;;;19.80;4.10;;;;;;;6.57;24.50;101503.88;104876;1271;62223;-32
2022/03/18 11:21:45;;;;;;;11.10;5.70;;;;;;;6.74;24.08;101504.45;105034;1271;61054;-31
2022/03/18 11:24:16;;;;;;;11.80;6.10;;;;;;;6.28;24.79;101502.30;104820;1271;75540;-31
2022/03/18 11:26:49;;;;;;;8.70;4.00;;;;;;;4.95;25.87;101496.49;104704;1272;78081;-29
2022/03/18 11:29:24;;;;;;;12.50;4.30;;;;;;;4.80;26.42;101491.98;104791;1271;73340;-29
2022/03/18 11:32:12;;;;;;;15.10;6.70;;;;;;;5.89;25.06;101497.16;104753;1272;61178;-29
2022/03/18 11:34:45;;;;;;;20.10;9.20;;;;;;;6.35;23.67;101492.67;104904;1271;61159;-29
2022/03/18 11:37:15;;;;;;;9.80;4.70;;;;;;;6.00;23.47;101489.16;104849;1271;74555;-30
2022/03/18 11:39:44;;;;;;;7.00;3.30;;;;;;;6.34;23.94;101484.77;105055;1271;74930;-30
2022/03/18 11:42:18;;;;;;;10.00;5.20;;;;;;;6.48;23.53;101481.62;104825;1271;73153;-29
2022/03/18 11:44:56;;;;;;;;;;;;;;;6.33;23.43;101479.79;104799;1271;61042;-30
2022/03/18 11:47:31;;;;;;;44.10;24.90;;;;;;;5.84;24.31;101477.93;105013;1271;61822;-29
2022/03/18 11:50:38;;;;;;;16.30;7.10;;;;;;;4.87;26.27;101479.61;105136;1271;75583;-29
2022/03/18 11:53:08;;;;;;;8.60;4.20;;;;;;;5.04;25.90;101484.45;105044;1271;76062;-30
2022/03/18 11:55:37;;;;;;;6.60;3.00;;;;;;;5.43;24.80;101485.93;104814;1271;74189;-29